African Jacaranda — D5FD6 — position and weather

sailwx.info

Track history (hours):
 
Tides and Currents Weather Stations Pressure Air Temp Water Temp Dewpoint Dewpoint Depression Visibility Wind Speed Wind Dir Waves Ship Positions

African Jacaranda

Last reported at 2017-Sep-08 07:28 UTC. Time now 2017-Sep-22 01:15 UTC.
Position N 28°15' W 016°19'.
Warning: this ship's position is 13 days out of date.

Length 138 m; draft 8.5 m.

Type: Cargo ship. MMSI: 636016233.

Date/timePositionNaut miles runAvg speedWind from/ knotsBaromVisibWave heightAir tempDewpointWater temp
2017-Sep-08 07:28N 28°15' W 016°19'913.1
2017-Sep-08 06:49N 28°22' W 016°15'412.2
2017-Sep-08 06:28N 28°26' W 016°13'3 4.3
2017-Sep-08 05:49N 28°29' W 016°13'0 0.1
2017-Sep-08 05:22N 28°29' W 016°13'0 0.1
2017-Sep-08 04:52N 28°29' W 016°13'0 0.0
2017-Sep-08 04:19N 28°29' W 016°13'0 0.0
2017-Sep-08 03:22N 28°29' W 016°13'0 0.1
2017-Sep-08 02:55N 28°29' W 016°13'0 0.1
2017-Sep-08 02:28N 28°29' W 016°13'0 0.0
2017-Sep-08 01:40N 28°29' W 016°13'0 0.1
2017-Sep-08 01:28N 28°29' W 016°13'0 0.1
2017-Sep-07 20:32N 28°29' W 016°13'1 3.3
2017-Sep-07 20:22N 28°28' W 016°12'1 2.7
2017-Sep-07 20:00N 28°28' W 016°11'4 8.0
2017-Sep-07 19:29N 28°30' W 016°07'613.4
2017-Sep-07 19:00N 28°33' W 016°00'713.1
2017-Sep-07 18:30N 28°39' W 015°58'812.7
2017-Sep-07 17:54N 28°46' W 015°55'512.5
2017-Sep-07 17:30N 28°51' W 015°53'612.4
2017-Sep-07 17:00N 28°57' W 015°51'712.2
2017-Sep-07 16:27N 29°03' W 015°49'1312.3
2017-Sep-07 15:22N 29°16' W 015°44'512.2
2017-Sep-07 15:00N 29°20' W 015°43'5612.3
2017-Sep-07 10:28N 30°14' W 015°24'912.2
2017-Sep-07 09:45N 30°22' W 015°21'4912.3
2017-Sep-07 05:44N 31°09' W 015°04'412.4
2017-Sep-07 05:27N 31°13' W 015°02'1012.6
2017-Sep-07 04:40N 31°22' W 014°59'3712.6
2017-Sep-07 01:42N 31°58' W 014°46'512.9
2017-Sep-07 01:18N 32°03' W 014°44'512.6
2017-Sep-07 00:54N 32°07' W 014°42'512.7
2017-Sep-07 00:30N 32°12' W 014°40'712.9
2017-Sep-06 23:59N 32°19' W 014°38'2113.0
2017-Sep-06 22:21N 32°39' W 014°30'1212.8
2017-Sep-06 21:22N 32°51' W 014°26'812.8
2017-Sep-06 20:45N 32°58' W 014°23'712.9
2017-Sep-06 20:12N 33°05' W 014°20'313.1
2017-Sep-06 19:59N 33°08' W 014°20'712.8
2017-Sep-06 19:26N 33°14' W 014°17'812.8
2017-Sep-06 18:49N 33°22' W 014°14'512.7
2017-Sep-06 18:25N 33°27' W 014°13'612.7
2017-Sep-06 17:56N 33°33' W 014°11'1512.5
2017-Sep-06 16:41N 33°47' W 014°04'512.5
2017-Sep-06 16:18N 33°52' W 014°02'412.5
2017-Sep-06 16:00N 33°55' W 014°01'5112.4
2017-Sep-06 11:51N 34°44' W 013°43'1812.4
2017-Sep-06 10:23N 35°02' W 013°36'512.4
2017-Sep-06 10:00N 35°06' W 013°34'15513.0
2017-Sep-05 22:07N 37°34' W 012°37'213.2
2017-Sep-05 21:56N 37°36' W 012°36'613.3
2017-Sep-05 21:27N 37°43' W 012°33'3113.5
2017-Sep-05 19:09N 38°12' W 012°21'413.1
2017-Sep-05 18:52N 38°16' W 012°20'1813.1
2017-Sep-05 17:31N 38°33' W 012°13'013.0
2017-Sep-05 17:31N 38°33' W 012°13'2513.0
2017-Sep-05 15:38N 38°56' W 012°04'  
2017-Sep-03 00:50N 49°37' W 003°55'412.1
2017-Sep-03 00:31N 49°39' W 003°50'612.4
2017-Sep-02 23:59N 49°42' W 003°42'613.0
2017-Sep-02 23:31N 49°45' W 003°33'713.3
2017-Sep-02 23:00N 49°49' W 003°24'713.5
2017-Sep-02 22:30N 49°52' W 003°15'713.6
2017-Sep-02 22:00N 49°56' W 003°06'713.7
2017-Sep-02 21:31N 49°59' W 002°57'713.4
2017-Sep-02 21:01N 50°00' W 002°47'713.0
2017-Sep-02 20:27N 50°02' W 002°36'2411.8
2017-Sep-02 18:26N 50°09' W 002°00'510.8
2017-Sep-02 18:00N 50°11' W 001°53'510.5
2017-Sep-02 17:30N 50°12' W 001°45'510.5
2017-Sep-02 17:00N 50°13' W 001°37'510.7
2017-Sep-02 16:30N 50°15' W 001°29'611.2
2017-Sep-02 16:00N 50°16' W 001°21'611.7
2017-Sep-02 15:30N 50°17' W 001°12'1312.8
2017-Sep-02 14:30N 50°21' W 000°53'2113.9
2017-Sep-02 13:00N 50°27' W 000°22'714.0
2017-Sep-02 12:30N 50°29' W 000°11'714.0
2017-Sep-02 12:00N 50°31' W 000°00'714.0
2017-Sep-02 11:30N 50°33' E 000°10'713.9
2017-Sep-02 11:00N 50°35' E 000°21'713.7
2017-Sep-02 10:30N 50°36' E 000°31'713.2
2017-Sep-02 10:00N 50°40' E 000°40'713.0
2017-Sep-02 09:30N 50°44' E 000°48'612.3
2017-Sep-02 09:00N 50°48' E 000°55'612.6
2017-Sep-02 08:30N 50°52' E 001°03'812.4
2017-Sep-02 07:51N 50°57' E 001°13'412.4
2017-Sep-02 07:30N 50°60' E 001°19'612.6
2017-Sep-02 07:00N 51°04' E 001°26'713.3
2017-Sep-02 06:30N 51°07' E 001°35'714.0
2017-Sep-02 06:01N 51°11' E 001°44'714.1
2017-Sep-02 05:30N 51°17' E 001°50'714.4
2017-Sep-02 05:00N 51°24' E 001°55'714.0
2017-Sep-02 04:30N 51°30' E 002°00'714.1
2017-Sep-02 04:00N 51°35' E 002°08'3213.2
2017-Sep-02 01:35N 51°59' E 002°41'312.5
2017-Sep-02 01:23N 52°01' E 002°44'512.4
2017-Sep-02 00:59N 52°05' E 002°49'612.2
2017-Sep-02 00:29N 52°10' E 002°56'612.0
2017-Sep-01 23:59N 52°14' E 003°02'19712.1
2017-Sep-01 07:46N 54°01' E 007°37'412.6
2017-Sep-01 07:27N 54°02' E 007°44'612.6
2017-Sep-01 07:00N 54°01' E 007°53'612.4
2017-Sep-01 06:30N 54°01' E 008°04'611.6
2017-Sep-01 06:00N 54°01' E 008°13'510.7
2017-Sep-01 05:30N 53°60' E 008°22'510.4
2017-Sep-01 05:00N 53°58' E 008°31'5 9.9
2017-Sep-01 04:30N 53°57' E 008°39'510.2
2017-Sep-01 04:00N 53°52' E 008°44'510.8
2017-Sep-01 03:30N 53°50' E 008°52'612.5
2017-Sep-01 03:01N 53°52' E 009°02'4 8.2
2017-Sep-01 02:30N 53°54' E 009°09'0 0.0
2017-Sep-01 02:00N 53°54' E 009°09'0 0.8
2017-Sep-01 01:30N 53°54' E 009°09'2 4.9
2017-Sep-01 01:00N 53°56' E 009°12'3 6.8
2017-Sep-01 00:31N 53°58' E 009°16'3 6.6
2017-Sep-01 00:00N 54°01' E 009°18'1 2.8
2017-Aug-31 23:30N 54°03' E 009°18'3 5.9
2017-Aug-31 22:56N 54°06' E 009°20'3 6.7
2017-Aug-31 22:30N 54°09' E 009°21'8 4.7
2017-Aug-31 20:49N 54°12' E 009°33'1 2.2
2017-Aug-31 20:22N 54°13' E 009°35'42 5.5
2017-Aug-31 12:50N 54°34' E 010°36'411.4
2017-Aug-31 12:31N 54°35' E 010°42'611.2
2017-Aug-31 12:01N 54°35' E 010°52'510.8
2017-Aug-31 11:30N 54°36' E 011°01'510.9
2017-Aug-31 11:00N 54°36' E 011°10'611.1
2017-Aug-31 10:30N 54°33' E 011°19'611.3
2017-Aug-31 10:00N 54°31' E 011°27'611.1
2017-Aug-31 09:30N 54°28' E 011°36'611.2
2017-Aug-31 09:00N 54°26' E 011°45'610.7
2017-Aug-31 08:28N 54°25' E 011°55'511.1
2017-Aug-31 08:00N 54°26' E 012°03'510.5
2017-Aug-31 07:31N 54°29' E 012°11'611.7
2017-Aug-31 07:01N 54°35' E 012°14'611.1
2017-Aug-31 06:31N 54°39' E 012°21'4511.7
2017-Aug-31 02:42N 54°57' E 013°31'211.7
2017-Aug-31 02:30N 54°58' E 013°34'611.5
2017-Aug-31 02:01N 55°00' E 013°44'611.8
2017-Aug-31 01:30N 55°02' E 013°54'612.0
2017-Aug-31 01:00N 55°04' E 014°04'611.7
2017-Aug-31 00:30N 55°08' E 014°10'611.9
2017-Aug-31 00:00N 55°13' E 014°17'611.8
2017-Aug-30 23:30N 55°17' E 014°23'611.7
2017-Aug-30 23:00N 55°22' E 014°30'611.5
2017-Aug-30 22:31N 55°26' E 014°36'612.0
2017-Aug-30 22:00N 55°29' E 014°46'612.0
2017-Aug-30 21:30N 55°32' E 014°55'611.8
2017-Aug-30 21:00N 55°35' E 015°04'611.7
2017-Aug-30 20:31N 55°37' E 015°13'611.6
2017-Aug-30 20:01N 55°40' E 015°23'611.7
2017-Aug-30 19:30N 55°41' E 015°33'612.1
2017-Aug-30 19:00N 55°43' E 015°43'612.2
2017-Aug-30 18:30N 55°44' E 015°54'612.2
2017-Aug-30 18:00N 55°45' E 016°04'612.3
2017-Aug-30 17:30N 55°47' E 016°15'612.2
2017-Aug-30 17:01N 55°49' E 016°25'612.1
2017-Aug-30 16:30N 55°50' E 016°36'611.9
2017-Aug-30 16:01N 55°51' E 016°46'611.6
2017-Aug-30 15:31N 55°53' E 016°56'612.0
2017-Aug-30 15:01N 55°54' E 017°07'612.1
2017-Aug-30 14:31N 55°56' E 017°17'612.0
2017-Aug-30 14:01N 55°57' E 017°27'612.1
2017-Aug-30 13:30N 55°59' E 017°38'611.8
2017-Aug-30 13:00N 56°02' E 017°47'2011.7
2017-Aug-30 11:20N 56°12' E 018°17'411.6
2017-Aug-30 11:00N 56°14' E 018°23'611.6
2017-Aug-30 10:30N 56°17' E 018°32'611.5
2017-Aug-30 10:00N 56°20' E 018°41'811.5
2017-Aug-30 09:17N 56°22' E 018°55'411.9
2017-Aug-30 08:57N 56°22' E 019°02'512.0
2017-Aug-30 08:29N 56°23' E 019°12'612.0
2017-Aug-30 07:59N 56°23' E 019°23'611.9
2017-Aug-30 07:30N 56°25' E 019°33'711.9
2017-Aug-30 06:57N 56°25' E 019°45'511.9
2017-Aug-30 06:30N 56°26' E 019°54'611.9
2017-Aug-30 06:00N 56°27' E 020°05'  
Track history (hours):
 
Tides and Currents Weather Stations Pressure Air Temp Water Temp Dewpoint Dewpoint Depression Visibility Wind Speed Wind Dir Waves Ship Positions

African Jacaranda

Last reported at 2017-Sep-08 07:28 UTC. Time now 2017-Sep-22 01:15 UTC.
Position N 28°15' W 016°19'.
Warning: this ship's position is 13 days out of date.

Length 138 m; draft 8.5 m.

Type: Cargo ship. MMSI: 636016233.

Date/timePositionNaut miles runAvg speedWind from/ knotsBaromVisibWave heightAir tempDewpointWater temp
2017-Sep-08 07:28N 28°15' W 016°19'913.1
2017-Sep-08 06:49N 28°22' W 016°15'412.2
2017-Sep-08 06:28N 28°26' W 016°13'3 4.3
2017-Sep-08 05:49N 28°29' W 016°13'0 0.1
2017-Sep-08 05:22N 28°29' W 016°13'0 0.1
2017-Sep-08 04:52N 28°29' W 016°13'0 0.0
2017-Sep-08 04:19N 28°29' W 016°13'0 0.0
2017-Sep-08 03:22N 28°29' W 016°13'0 0.1
2017-Sep-08 02:55N 28°29' W 016°13'0 0.1
2017-Sep-08 02:28N 28°29' W 016°13'0 0.0
2017-Sep-08 01:40N 28°29' W 016°13'0 0.1
2017-Sep-08 01:28N 28°29' W 016°13'0 0.1
2017-Sep-07 20:32N 28°29' W 016°13'1 3.3
2017-Sep-07 20:22N 28°28' W 016°12'1 2.7
2017-Sep-07 20:00N 28°28' W 016°11'4 8.0
2017-Sep-07 19:29N 28°30' W 016°07'613.4
2017-Sep-07 19:00N 28°33' W 016°00'713.1
2017-Sep-07 18:30N 28°39' W 015°58'812.7
2017-Sep-07 17:54N 28°46' W 015°55'512.5
2017-Sep-07 17:30N 28°51' W 015°53'612.4
2017-Sep-07 17:00N 28°57' W 015°51'712.2
2017-Sep-07 16:27N 29°03' W 015°49'1312.3
2017-Sep-07 15:22N 29°16' W 015°44'512.2
2017-Sep-07 15:00N 29°20' W 015°43'5612.3
2017-Sep-07 10:28N 30°14' W 015°24'912.2
2017-Sep-07 09:45N 30°22' W 015°21'4912.3
2017-Sep-07 05:44N 31°09' W 015°04'412.4
2017-Sep-07 05:27N 31°13' W 015°02'1012.6
2017-Sep-07 04:40N 31°22' W 014°59'3712.6
2017-Sep-07 01:42N 31°58' W 014°46'512.9
2017-Sep-07 01:18N 32°03' W 014°44'512.6
2017-Sep-07 00:54N 32°07' W 014°42'512.7
2017-Sep-07 00:30N 32°12' W 014°40'712.9
2017-Sep-06 23:59N 32°19' W 014°38'2113.0
2017-Sep-06 22:21N 32°39' W 014°30'1212.8
2017-Sep-06 21:22N 32°51' W 014°26'812.8
2017-Sep-06 20:45N 32°58' W 014°23'712.9
2017-Sep-06 20:12N 33°05' W 014°20'313.1
2017-Sep-06 19:59N 33°08' W 014°20'712.8
2017-Sep-06 19:26N 33°14' W 014°17'812.8
2017-Sep-06 18:49N 33°22' W 014°14'512.7
2017-Sep-06 18:25N 33°27' W 014°13'612.7
2017-Sep-06 17:56N 33°33' W 014°11'1512.5
2017-Sep-06 16:41N 33°47' W 014°04'512.5
2017-Sep-06 16:18N 33°52' W 014°02'412.5
2017-Sep-06 16:00N 33°55' W 014°01'5112.4
2017-Sep-06 11:51N 34°44' W 013°43'1812.4
2017-Sep-06 10:23N 35°02' W 013°36'512.4
2017-Sep-06 10:00N 35°06' W 013°34'15513.0
2017-Sep-05 22:07N 37°34' W 012°37'213.2
2017-Sep-05 21:56N 37°36' W 012°36'613.3
2017-Sep-05 21:27N 37°43' W 012°33'3113.5
2017-Sep-05 19:09N 38°12' W 012°21'413.1
2017-Sep-05 18:52N 38°16' W 012°20'1813.1
2017-Sep-05 17:31N 38°33' W 012°13'013.0
2017-Sep-05 17:31N 38°33' W 012°13'2513.0
2017-Sep-05 15:38N 38°56' W 012°04'  
2017-Sep-03 00:50N 49°37' W 003°55'412.1
2017-Sep-03 00:31N 49°39' W 003°50'612.4
2017-Sep-02 23:59N 49°42' W 003°42'613.0
2017-Sep-02 23:31N 49°45' W 003°33'713.3
2017-Sep-02 23:00N 49°49' W 003°24'713.5
2017-Sep-02 22:30N 49°52' W 003°15'713.6
2017-Sep-02 22:00N 49°56' W 003°06'713.7
2017-Sep-02 21:31N 49°59' W 002°57'713.4
2017-Sep-02 21:01N 50°00' W 002°47'713.0
2017-Sep-02 20:27N 50°02' W 002°36'2411.8
2017-Sep-02 18:26N 50°09' W 002°00'510.8
2017-Sep-02 18:00N 50°11' W 001°53'510.5
2017-Sep-02 17:30N 50°12' W 001°45'510.5
2017-Sep-02 17:00N 50°13' W 001°37'510.7
2017-Sep-02 16:30N 50°15' W 001°29'611.2
2017-Sep-02 16:00N 50°16' W 001°21'611.7
2017-Sep-02 15:30N 50°17' W 001°12'1312.8
2017-Sep-02 14:30N 50°21' W 000°53'2113.9
2017-Sep-02 13:00N 50°27' W 000°22'714.0
2017-Sep-02 12:30N 50°29' W 000°11'714.0
2017-Sep-02 12:00N 50°31' W 000°00'714.0
2017-Sep-02 11:30N 50°33' E 000°10'713.9
2017-Sep-02 11:00N 50°35' E 000°21'713.7
2017-Sep-02 10:30N 50°36' E 000°31'713.2
2017-Sep-02 10:00N 50°40' E 000°40'713.0
2017-Sep-02 09:30N 50°44' E 000°48'612.3
2017-Sep-02 09:00N 50°48' E 000°55'612.6
2017-Sep-02 08:30N 50°52' E 001°03'812.4
2017-Sep-02 07:51N 50°57' E 001°13'412.4
2017-Sep-02 07:30N 50°60' E 001°19'612.6
2017-Sep-02 07:00N 51°04' E 001°26'713.3
2017-Sep-02 06:30N 51°07' E 001°35'714.0
2017-Sep-02 06:01N 51°11' E 001°44'714.1
2017-Sep-02 05:30N 51°17' E 001°50'714.4
2017-Sep-02 05:00N 51°24' E 001°55'714.0
2017-Sep-02 04:30N 51°30' E 002°00'714.1
2017-Sep-02 04:00N 51°35' E 002°08'3213.2
2017-Sep-02 01:35N 51°59' E 002°41'312.5
2017-Sep-02 01:23N 52°01' E 002°44'512.4
2017-Sep-02 00:59N 52°05' E 002°49'612.2
2017-Sep-02 00:29N 52°10' E 002°56'612.0
2017-Sep-01 23:59N 52°14' E 003°02'19712.1
2017-Sep-01 07:46N 54°01' E 007°37'412.6
2017-Sep-01 07:27N 54°02' E 007°44'612.6
2017-Sep-01 07:00N 54°01' E 007°53'612.4
2017-Sep-01 06:30N 54°01' E 008°04'611.6
2017-Sep-01 06:00N 54°01' E 008°13'510.7
2017-Sep-01 05:30N 53°60' E 008°22'510.4
2017-Sep-01 05:00N 53°58' E 008°31'5 9.9
2017-Sep-01 04:30N 53°57' E 008°39'510.2
2017-Sep-01 04:00N 53°52' E 008°44'510.8
2017-Sep-01 03:30N 53°50' E 008°52'612.5
2017-Sep-01 03:01N 53°52' E 009°02'4 8.2
2017-Sep-01 02:30N 53°54' E 009°09'0 0.0
2017-Sep-01 02:00N 53°54' E 009°09'0 0.8
2017-Sep-01 01:30N 53°54' E 009°09'2 4.9
2017-Sep-01 01:00N 53°56' E 009°12'3 6.8
2017-Sep-01 00:31N 53°58' E 009°16'3 6.6
2017-Sep-01 00:00N 54°01' E 009°18'1 2.8
2017-Aug-31 23:30N 54°03' E 009°18'3 5.9
2017-Aug-31 22:56N 54°06' E 009°20'3 6.7
2017-Aug-31 22:30N 54°09' E 009°21'8 4.7
2017-Aug-31 20:49N 54°12' E 009°33'1 2.2
2017-Aug-31 20:22N 54°13' E 009°35'42 5.5
2017-Aug-31 12:50N 54°34' E 010°36'411.4
2017-Aug-31 12:31N 54°35' E 010°42'611.2
2017-Aug-31 12:01N 54°35' E 010°52'510.8
2017-Aug-31 11:30N 54°36' E 011°01'510.9
2017-Aug-31 11:00N 54°36' E 011°10'611.1
2017-Aug-31 10:30N 54°33' E 011°19'611.3
2017-Aug-31 10:00N 54°31' E 011°27'611.1
2017-Aug-31 09:30N 54°28' E 011°36'611.2
2017-Aug-31 09:00N 54°26' E 011°45'610.7
2017-Aug-31 08:28N 54°25' E 011°55'511.1
2017-Aug-31 08:00N 54°26' E 012°03'510.5
2017-Aug-31 07:31N 54°29' E 012°11'611.7
2017-Aug-31 07:01N 54°35' E 012°14'611.1
2017-Aug-31 06:31N 54°39' E 012°21'4511.7
2017-Aug-31 02:42N 54°57' E 013°31'211.7
2017-Aug-31 02:30N 54°58' E 013°34'611.5
2017-Aug-31 02:01N 55°00' E 013°44'611.8
2017-Aug-31 01:30N 55°02' E 013°54'612.0
2017-Aug-31 01:00N 55°04' E 014°04'611.7
2017-Aug-31 00:30N 55°08' E 014°10'611.9
2017-Aug-31 00:00N 55°13' E 014°17'611.8
2017-Aug-30 23:30N 55°17' E 014°23'611.7
2017-Aug-30 23:00N 55°22' E 014°30'611.5
2017-Aug-30 22:31N 55°26' E 014°36'612.0
2017-Aug-30 22:00N 55°29' E 014°46'612.0
2017-Aug-30 21:30N 55°32' E 014°55'611.8
2017-Aug-30 21:00N 55°35' E 015°04'611.7
2017-Aug-30 20:31N 55°37' E 015°13'611.6
2017-Aug-30 20:01N 55°40' E 015°23'611.7
2017-Aug-30 19:30N 55°41' E 015°33'612.1
2017-Aug-30 19:00N 55°43' E 015°43'612.2
2017-Aug-30 18:30N 55°44' E 015°54'612.2
2017-Aug-30 18:00N 55°45' E 016°04'612.3
2017-Aug-30 17:30N 55°47' E 016°15'612.2
2017-Aug-30 17:01N 55°49' E 016°25'612.1
2017-Aug-30 16:30N 55°50' E 016°36'611.9
2017-Aug-30 16:01N 55°51' E 016°46'611.6
2017-Aug-30 15:31N 55°53' E 016°56'612.0
2017-Aug-30 15:01N 55°54' E 017°07'612.1
2017-Aug-30 14:31N 55°56' E 017°17'612.0
2017-Aug-30 14:01N 55°57' E 017°27'612.1
2017-Aug-30 13:30N 55°59' E 017°38'611.8
2017-Aug-30 13:00N 56°02' E 017°47'2011.7
2017-Aug-30 11:20N 56°12' E 018°17'411.6
2017-Aug-30 11:00N 56°14' E 018°23'611.6
2017-Aug-30 10:30N 56°17' E 018°32'611.5
2017-Aug-30 10:00N 56°20' E 018°41'811.5
2017-Aug-30 09:17N 56°22' E 018°55'411.9
2017-Aug-30 08:57N 56°22' E 019°02'512.0
2017-Aug-30 08:29N 56°23' E 019°12'612.0
2017-Aug-30 07:59N 56°23' E 019°23'611.9
2017-Aug-30 07:30N 56°25' E 019°33'711.9
2017-Aug-30 06:57N 56°25' E 019°45'511.9
2017-Aug-30 06:30N 56°26' E 019°54'611.9
2017-Aug-30 06:00N 56°27' E 020°05'  

Dump ship's entire track history